sensor_id;sensor_type;location;lat;lon;timestamp;pressure;altitude;pressure_sealevel;temperature;humidity
19761;BME280;10039;42.632;23.408;2023-05-03T00:00:59;95365.75;;;15.39;42.12
19761;BME280;10039;42.632;23.408;2023-05-03T00:03:26;95352.91;;;15.30;41.98
19761;BME280;10039;42.632;23.408;2023-05-03T00:05:52;95336.22;;;15.23;42.13
19761;BME280;10039;42.632;23.408;2023-05-03T00:08:17;95341.19;;;15.24;41.78
19761;BME280;10039;42.632;23.408;2023-05-03T00:10:43;95357.75;;;15.23;41.50
19761;BME280;10039;42.632;23.408;2023-05-03T00:13:08;95360.88;;;15.09;41.88
19761;BME280;10039;42.632;23.408;2023-05-03T00:15:33;95325.34;;;14.76;42.06
19761;BME280;10039;42.632;23.408;2023-05-03T00:17:59;95360.09;;;14.96;42.12
19761;BME280;10039;42.632;23.408;2023-05-03T00:20:24;95372.56;;;14.90;41.96
19761;BME280;10039;42.632;23.408;2023-05-03T00:22:50;95376.53;;;14.85;41.85
19761;BME280;10039;42.632;23.408;2023-05-03T00:25:16;95381.91;;;14.85;41.91
19761;BME280;10039;42.632;23.408;2023-05-03T00:27:42;95336.03;;;14.39;41.65
19761;BME280;10039;42.632;23.408;2023-05-03T00:30:08;95369.66;;;14.44;42.05
19761;BME280;10039;42.632;23.408;2023-05-03T00:32:34;95381.91;;;14.45;43.01
19761;BME280;10039;42.632;23.408;2023-05-03T00:35:00;95356.47;;;14.21;42.21
19761;BME280;10039;42.632;23.408;2023-05-03T00:37:25;95381.31;;;14.25;42.21
19761;BME280;10039;42.632;23.408;2023-05-03T00:39:51;95363.97;;;14.13;43.28
19761;BME280;10039;42.632;23.408;2023-05-03T00:42:17;95365.59;;;14.23;42.94
19761;BME280;10039;42.632;23.408;2023-05-03T00:44:42;95380.97;;;14.07;43.02
19761;BME280;10039;42.632;23.408;2023-05-03T00:47:08;95387.16;;;14.04;44.08
19761;BME280;10039;42.632;23.408;2023-05-03T00:49:33;95351.56;;;13.87;43.32
19761;BME280;10039;42.632;23.408;2023-05-03T00:51:59;95384.25;;;13.98;43.53
19761;BME280;10039;42.632;23.408;2023-05-03T00:54:26;95365.97;;;13.93;43.09
19761;BME280;10039;42.632;23.408;2023-05-03T00:56:52;95354.34;;;13.84;44.05
19761;BME280;10039;42.632;23.408;2023-05-03T00:59:18;95327.44;;;13.71;43.46
19761;BME280;10039;42.632;23.408;2023-05-03T01:01:48;95348.56;;;13.85;43.67
19761;BME280;10039;42.632;23.408;2023-05-03T01:04:14;95366.63;;;13.97;42.97
19761;BME280;10039;42.632;23.408;2023-05-03T01:06:50;95336.31;;;13.84;43.60
19761;BME280;10039;42.632;23.408;2023-05-03T01:09:37;95366.69;;;14.10;43.68
19761;BME280;10039;42.632;23.408;2023-05-03T01:15:16;95348.13;;;13.87;43.59
19761;BME280;10039;42.632;23.408;2023-05-03T01:17:49;95341.19;;;13.73;43.73
19761;BME280;10039;42.632;23.408;2023-05-03T01:20:20;95345.31;;;13.62;44.16
19761;BME280;10039;42.632;23.408;2023-05-03T01:23:02;95330.47;;;13.57;43.73
19761;BME280;10039;42.632;23.408;2023-05-03T01:25:30;95333.81;;;13.61;44.48
19761;BME280;10039;42.632;23.408;2023-05-03T01:27:55;95330.97;;;13.84;44.95
19761;BME280;10039;42.632;23.408;2023-05-03T01:30:40;95323.75;;;13.65;44.57
19761;BME280;10039;42.632;23.408;2023-05-03T01:38:36;95329.28;;;13.74;44.99
19761;BME280;10039;42.632;23.408;2023-05-03T01:41:05;95339.13;;;13.93;44.17
19761;BME280;10039;42.632;23.408;2023-05-03T01:43:33;95320.19;;;14.00;44.81
19761;BME280;10039;42.632;23.408;2023-05-03T01:46:00;95320.69;;;13.95;43.64
19761;BME280;10039;42.632;23.408;2023-05-03T01:48:26;95297.88;;;13.87;44.23
19761;BME280;10039;42.632;23.408;2023-05-03T01:50:51;95277.75;;;13.67;44.33
19761;BME280;10039;42.632;23.408;2023-05-03T01:53:16;95310.63;;;13.99;44.99
19761;BME280;10039;42.632;23.408;2023-05-03T01:55:42;95276.81;;;13.73;44.13
19761;BME280;10039;42.632;23.408;2023-05-03T01:58:07;95311.91;;;13.79;44.27
19761;BME280;10039;42.632;23.408;2023-05-03T02:00:33;95286.38;;;13.58;44.50
19761;BME280;10039;42.632;23.408;2023-05-03T02:02:58;95259.66;;;13.55;44.91
19761;BME280;10039;42.632;23.408;2023-05-03T02:05:24;95284.84;;;13.73;45.27
19761;BME280;10039;42.632;23.408;2023-05-03T02:07:50;95275.47;;;13.81;44.85
19761;BME280;10039;42.632;23.408;2023-05-03T02:10:15;95238.09;;;13.58;45.32
19761;BME280;10039;42.632;23.408;2023-05-03T02:12:42;95282.38;;;13.95;44.39
19761;BME280;10039;42.632;23.408;2023-05-03T02:15:08;95296.47;;;13.83;44.81
19761;BME280;10039;42.632;23.408;2023-05-03T02:17:33;95286.41;;;13.87;45.65
19761;BME280;10039;42.632;23.408;2023-05-03T02:19:59;95285.66;;;13.86;45.48
19761;BME280;10039;42.632;23.408;2023-05-03T02:22:25;95290.00;;;13.96;45.24
19761;BME280;10039;42.632;23.408;2023-05-03T02:24:50;95260.72;;;13.73;44.84
19761;BME280;10039;42.632;23.408;2023-05-03T02:27:16;95283.63;;;13.90;44.63
19761;BME280;10039;42.632;23.408;2023-05-03T02:29:41;95293.44;;;13.97;44.69
19761;BME280;10039;42.632;23.408;2023-05-03T02:32:07;95281.88;;;14.00;45.32
19761;BME280;10039;42.632;23.408;2023-05-03T02:34:32;95287.19;;;14.16;45.06
19761;BME280;10039;42.632;23.408;2023-05-03T02:36:58;95288.13;;;14.09;45.07
19761;BME280;10039;42.632;23.408;2023-05-03T02:39:24;95290.44;;;14.23;44.98
19761;BME280;10039;42.632;23.408;2023-05-03T02:41:49;95289.19;;;14.12;44.62
19761;BME280;10039;42.632;23.408;2023-05-03T02:44:15;95290.47;;;14.07;44.76
19761;BME280;10039;42.632;23.408;2023-05-03T02:46:40;95277.94;;;13.88;44.80
19761;BME280;10039;42.632;23.408;2023-05-03T02:49:09;95275.41;;;13.69;45.16
19761;BME280;10039;42.632;23.408;2023-05-03T02:51:35;95255.81;;;13.56;44.61
19761;BME280;10039;42.632;23.408;2023-05-03T02:54:01;95280.34;;;13.70;45.68
19761;BME280;10039;42.632;23.408;2023-05-03T02:56:27;95261.78;;;13.32;44.93
19761;BME280;10039;42.632;23.408;2023-05-03T02:58:53;95271.22;;;13.52;45.89
19761;BME280;10039;42.632;23.408;2023-05-03T03:01:18;95262.84;;;13.50;45.37
19761;BME280;10039;42.632;23.408;2023-05-03T03:03:44;95273.69;;;13.46;45.27
19761;BME280;10039;42.632;23.408;2023-05-03T03:06:09;95240.44;;;13.28;45.86
19761;BME280;10039;42.632;23.408;2023-05-03T03:08:35;95272.00;;;13.52;45.63
19761;BME280;10039;42.632;23.408;2023-05-03T03:11:02;95272.50;;;13.47;45.82
19761;BME280;10039;42.632;23.408;2023-05-03T03:13:28;95257.94;;;13.33;45.66
19761;BME280;10039;42.632;23.408;2023-05-03T03:15:53;95276.44;;;13.43;46.30
19761;BME280;10039;42.632;23.408;2023-05-03T03:18:18;95234.84;;;13.07;46.33
19761;BME280;10039;42.632;23.408;2023-05-03T03:20:44;95276.19;;;13.38;46.49
19761;BME280;10039;42.632;23.408;2023-05-03T03:23:10;95237.28;;;13.01;46.16
19761;BME280;10039;42.632;23.408;2023-05-03T03:25:35;95277.28;;;13.08;47.04
19761;BME280;10039;42.632;23.408;2023-05-03T03:28:01;95290.53;;;13.15;47.02
19761;BME280;10039;42.632;23.408;2023-05-03T03:30:26;95293.47;;;13.21;46.72
19761;BME280;10039;42.632;23.408;2023-05-03T03:32:52;95295.16;;;13.15;46.58
19761;BME280;10039;42.632;23.408;2023-05-03T03:35:18;95309.72;;;13.14;46.67
19761;BME280;10039;42.632;23.408;2023-05-03T03:37:44;95296.28;;;12.98;46.60
19761;BME280;10039;42.632;23.408;2023-05-03T03:40:09;95314.41;;;13.10;46.93
19761;BME280;10039;42.632;23.408;2023-05-03T03:42:35;95307.53;;;13.09;46.63
19761;BME280;10039;42.632;23.408;2023-05-03T03:45:01;95303.59;;;12.97;46.27
19761;BME280;10039;42.632;23.408;2023-05-03T03:47:26;95274.81;;;12.82;46.49
19761;BME280;10039;42.632;23.408;2023-05-03T03:49:52;95311.88;;;13.03;46.27
19761;BME280;10039;42.632;23.408;2023-05-03T03:52:17;95317.41;;;13.12;46.79
19761;BME280;10039;42.632;23.408;2023-05-03T03:54:43;95277.84;;;12.84;46.44
19761;BME280;10039;42.632;23.408;2023-05-03T03:57:08;95308.19;;;13.13;47.08
19761;BME280;10039;42.632;23.408;2023-05-03T03:59:34;95334.41;;;13.21;46.56
19761;BME280;10039;42.632;23.408;2023-05-03T04:01:59;95328.31;;;13.21;46.19
19761;BME280;10039;42.632;23.408;2023-05-03T04:04:25;95331.84;;;13.18;46.19
19761;BME280;10039;42.632;23.408;2023-05-03T04:06:50;95336.50;;;13.14;47.04
19761;BME280;10039;42.632;23.408;2023-05-03T04:09:16;95344.91;;;13.16;46.03
19761;BME280;10039;42.632;23.408;2023-05-03T04:11:42;95362.28;;;13.24;46.64
19761;BME280;10039;42.632;23.408;2023-05-03T04:14:07;95333.56;;;13.08;45.90
19761;BME280;10039;42.632;23.408;2023-05-03T04:16:32;95334.16;;;13.16;46.94
19761;BME280;10039;42.632;23.408;2023-05-03T04:18:58;95344.66;;;13.26;46.55
19761;BME280;10039;42.632;23.408;2023-05-03T04:21:24;95356.19;;;13.39;46.44
19761;BME280;10039;42.632;23.408;2023-05-03T04:23:49;95362.97;;;13.59;46.09
19761;BME280;10039;42.632;23.408;2023-05-03T04:26:15;95369.09;;;13.44;47.01
19761;BME280;10039;42.632;23.408;2023-05-03T04:28:41;95327.97;;;13.19;47.83
19761;BME280;10039;42.632;23.408;2023-05-03T04:31:07;95391.66;;;13.46;49.71
19761;BME280;10039;42.632;23.408;2023-05-03T04:33:32;95355.94;;;13.34;49.02
19761;BME280;10039;42.632;23.408;2023-05-03T04:35:58;95387.97;;;13.41;48.66
19761;BME280;10039;42.632;23.408;2023-05-03T04:38:23;95376.56;;;13.21;49.38
19761;BME280;10039;42.632;23.408;2023-05-03T04:40:49;95395.56;;;13.26;49.21
19761;BME280;10039;42.632;23.408;2023-05-03T04:43:14;95388.94;;;13.31;49.70
19761;BME280;10039;42.632;23.408;2023-05-03T04:45:40;95380.22;;;13.11;48.95
19761;BME280;10039;42.632;23.408;2023-05-03T04:48:06;95389.50;;;13.06;48.95
19761;BME280;10039;42.632;23.408;2023-05-03T04:50:32;95375.16;;;12.97;49.39
19761;BME280;10039;42.632;23.408;2023-05-03T04:52:58;95394.59;;;13.01;49.18
19761;BME280;10039;42.632;23.408;2023-05-03T04:55:24;95376.19;;;12.83;50.18
19761;BME280;10039;42.632;23.408;2023-05-03T04:57:49;95363.59;;;12.64;50.44
19761;BME280;10039;42.632;23.408;2023-05-03T05:00:15;95373.59;;;12.60;51.51
19761;BME280;10039;42.632;23.408;2023-05-03T05:02:40;95419.66;;;12.91;51.23
19761;BME280;10039;42.632;23.408;2023-05-03T05:05:06;95414.25;;;12.75;51.37
19761;BME280;10039;42.632;23.408;2023-05-03T05:07:31;95411.09;;;12.60;52.32
19761;BME280;10039;42.632;23.408;2023-05-03T05:09:58;95391.94;;;12.42;52.88
19761;BME280;10039;42.632;23.408;2023-05-03T05:12:23;95434.63;;;12.69;52.58
19761;BME280;10039;42.632;23.408;2023-05-03T05:14:48;95405.19;;;12.49;53.32
19761;BME280;10039;42.632;23.408;2023-05-03T05:17:14;95436.63;;;12.65;53.97
19761;BME280;10039;42.632;23.408;2023-05-03T05:19:40;95412.00;;;12.54;53.45
19761;BME280;10039;42.632;23.408;2023-05-03T05:22:06;95433.47;;;12.70;52.97
19761;BME280;10039;42.632;23.408;2023-05-03T05:24:32;95420.63;;;12.42;53.47
19761;BME280;10039;42.632;23.408;2023-05-03T05:26:57;95410.47;;;12.33;53.49
19761;BME280;10039;42.632;23.408;2023-05-03T05:29:23;95435.41;;;12.50;52.73
19761;BME280;10039;42.632;23.408;2023-05-03T05:31:49;95438.75;;;12.54;52.27
19761;BME280;10039;42.632;23.408;2023-05-03T05:34:14;95444.19;;;12.70;52.41
19761;BME280;10039;42.632;23.408;2023-05-03T05:36:40;95446.84;;;12.70;51.67
19761;BME280;10039;42.632;23.408;2023-05-03T05:39:05;95438.59;;;12.61;51.60
19761;BME280;10039;42.632;23.408;2023-05-03T05:41:31;95423.03;;;12.56;51.92
19761;BME280;10039;42.632;23.408;2023-05-03T05:43:57;95441.25;;;12.84;51.96
19761;BME280;10039;42.632;23.408;2023-05-03T05:46:23;95452.59;;;12.91;51.51
19761;BME280;10039;42.632;23.408;2023-05-03T05:48:48;95444.69;;;13.04;51.29
19761;BME280;10039;42.632;23.408;2023-05-03T05:51:15;95435.75;;;12.91;51.33
19761;BME280;10039;42.632;23.408;2023-05-03T05:53:41;95413.06;;;12.76;52.27
19761;BME280;10039;42.632;23.408;2023-05-03T05:56:06;95434.91;;;12.94;51.99
19761;BME280;10039;42.632;23.408;2023-05-03T05:58:33;95423.22;;;12.84;51.98
19761;BME280;10039;42.632;23.408;2023-05-03T06:00:59;95403.88;;;12.77;51.65
19761;BME280;10039;42.632;23.408;2023-05-03T06:03:29;95431.84;;;12.95;51.75
19761;BME280;10039;42.632;23.408;2023-05-03T06:05:56;95408.66;;;12.85;52.27
19761;BME280;10039;42.632;23.408;2023-05-03T06:08:21;95435.59;;;12.98;51.69
19761;BME280;10039;42.632;23.408;2023-05-03T06:10:47;95404.44;;;12.88;51.88
19761;BME280;10039;42.632;23.408;2023-05-03T06:13:12;95415.13;;;12.88;51.96
19761;BME280;10039;42.632;23.408;2023-05-03T06:15:56;95424.88;;;12.98;51.63
19761;BME280;10039;42.632;23.408;2023-05-03T06:18:22;95415.09;;;12.91;51.86
19761;BME280;10039;42.632;23.408;2023-05-03T06:20:48;95409.09;;;12.84;53.04
19761;BME280;10039;42.632;23.408;2023-05-03T06:23:14;95433.13;;;13.07;52.69
19761;BME280;10039;42.632;23.408;2023-05-03T06:25:40;95403.88;;;12.96;52.67
19761;BME280;10039;42.632;23.408;2023-05-03T06:28:05;95431.00;;;13.18;53.02
19761;BME280;10039;42.632;23.408;2023-05-03T06:30:31;95429.00;;;13.22;52.63
19761;BME280;10039;42.632;23.408;2023-05-03T06:32:56;95421.25;;;13.24;52.84
19761;BME280;10039;42.632;23.408;2023-05-03T06:35:21;95427.31;;;13.28;52.20
19761;BME280;10039;42.632;23.408;2023-05-03T06:37:47;95415.75;;;13.31;51.89
19761;BME280;10039;42.632;23.408;2023-05-03T06:40:13;95376.94;;;13.03;52.20
19761;BME280;10039;42.632;23.408;2023-05-03T06:42:40;95396.66;;;13.29;51.54
19761;BME280;10039;42.632;23.408;2023-05-03T06:45:05;95406.38;;;13.54;51.16
19761;BME280;10039;42.632;23.408;2023-05-03T06:47:32;95400.72;;;13.52;51.20
19761;BME280;10039;42.632;23.408;2023-05-03T06:49:57;95363.81;;;13.25;50.60
19761;BME280;10039;42.632;23.408;2023-05-03T06:52:23;95388.06;;;13.53;50.44
19761;BME280;10039;42.632;23.408;2023-05-03T06:54:48;95375.31;;;13.57;50.69
19761;BME280;10039;42.632;23.408;2023-05-03T06:57:14;95365.75;;;13.56;50.56
19761;BME280;10039;42.632;23.408;2023-05-03T06:59:40;95353.63;;;13.51;50.69
19761;BME280;10039;42.632;23.408;2023-05-03T07:02:05;95361.25;;;13.69;50.26
19761;BME280;10039;42.632;23.408;2023-05-03T07:04:31;95395.81;;;13.95;50.28
19761;BME280;10039;42.632;23.408;2023-05-03T07:06:57;95382.50;;;13.92;49.77
19761;BME280;10039;42.632;23.408;2023-05-03T07:09:23;95380.22;;;13.90;50.15
19761;BME280;10039;42.632;23.408;2023-05-03T07:11:48;95404.38;;;14.06;49.92
19761;BME280;10039;42.632;23.408;2023-05-03T07:14:16;95404.72;;;14.08;50.63
19761;BME280;10039;42.632;23.408;2023-05-03T07:16:41;95395.16;;;13.91;50.80
19761;BME280;10039;42.632;23.408;2023-05-03T07:19:07;95397.50;;;13.89;50.47
19761;BME280;10039;42.632;23.408;2023-05-03T07:21:33;95359.47;;;13.78;50.97
19761;BME280;10039;42.632;23.408;2023-05-03T07:23:59;95385.25;;;13.88;50.64
19761;BME280;10039;42.632;23.408;2023-05-03T07:26:25;95392.75;;;13.81;51.15
19761;BME280;10039;42.632;23.408;2023-05-03T07:28:51;95370.69;;;13.57;51.22
19761;BME280;10039;42.632;23.408;2023-05-03T07:31:17;95389.81;;;13.75;51.61
19761;BME280;10039;42.632;23.408;2023-05-03T07:33:43;95375.13;;;13.80;51.34
19761;BME280;10039;42.632;23.408;2023-05-03T07:36:08;95361.47;;;13.58;51.25
19761;BME280;10039;42.632;23.408;2023-05-03T07:38:34;95385.63;;;13.74;51.96
19761;BME280;10039;42.632;23.408;2023-05-03T07:40:59;95370.25;;;13.91;51.68
19761;BME280;10039;42.632;23.408;2023-05-03T07:43:25;95394.72;;;14.09;51.48
19761;BME280;10039;42.632;23.408;2023-05-03T07:45:50;95358.25;;;13.95;50.98
19761;BME280;10039;42.632;23.408;2023-05-03T07:48:16;95386.19;;;14.14;51.69
19761;BME280;10039;42.632;23.408;2023-05-03T07:50:42;95361.19;;;14.01;51.55
19761;BME280;10039;42.632;23.408;2023-05-03T07:53:08;95385.34;;;14.17;51.63
19761;BME280;10039;42.632;23.408;2023-05-03T07:55:34;95385.59;;;14.06;52.39
19761;BME280;10039;42.632;23.408;2023-05-03T07:58:01;95385.66;;;14.19;52.41
19761;BME280;10039;42.632;23.408;2023-05-03T08:00:26;95397.28;;;14.44;51.80
19761;BME280;10039;42.632;23.408;2023-05-03T08:02:52;95387.28;;;14.45;51.04
19761;BME280;10039;42.632;23.408;2023-05-03T08:05:18;95384.28;;;14.55;51.16
19761;BME280;10039;42.632;23.408;2023-05-03T08:07:43;95380.06;;;14.70;51.33
19761;BME280;10039;42.632;23.408;2023-05-03T08:10:09;95378.44;;;14.72;51.09
19761;BME280;10039;42.632;23.408;2023-05-03T08:12:35;95365.84;;;14.69;50.68
19761;BME280;10039;42.632;23.408;2023-05-03T08:15:01;95381.91;;;14.85;50.97
19761;BME280;10039;42.632;23.408;2023-05-03T08:17:29;95363.50;;;14.84;51.02
19761;BME280;10039;42.632;23.408;2023-05-03T08:19:54;95377.31;;;15.11;51.00
19761;BME280;10039;42.632;23.408;2023-05-03T08:22:20;95375.94;;;15.31;50.76
19761;BME280;10039;42.632;23.408;2023-05-03T08:24:46;95374.44;;;15.30;50.55
19761;BME280;10039;42.632;23.408;2023-05-03T08:27:11;95353.34;;;15.41;49.92
19761;BME280;10039;42.632;23.408;2023-05-03T08:29:37;95375.38;;;15.73;49.79
19761;BME280;10039;42.632;23.408;2023-05-03T08:32:03;95353.22;;;15.70;49.36
19761;BME280;10039;42.632;23.408;2023-05-03T08:34:29;95375.94;;;15.69;49.42
19761;BME280;10039;42.632;23.408;2023-05-03T08:36:54;95375.03;;;15.84;49.68
19761;BME280;10039;42.632;23.408;2023-05-03T08:39:22;95373.69;;;16.01;50.23
19761;BME280;10039;42.632;23.408;2023-05-03T08:41:49;95370.28;;;16.34;49.35
19761;BME280;10039;42.632;23.408;2023-05-03T08:44:21;95369.97;;;16.32;48.84
19761;BME280;10039;42.632;23.408;2023-05-03T08:46:48;95363.66;;;16.69;49.43
19761;BME280;10039;42.632;23.408;2023-05-03T08:49:15;95372.63;;;16.96;48.47
19761;BME280;10039;42.632;23.408;2023-05-03T08:51:43;95376.19;;;16.85;47.76
19761;BME280;10039;42.632;23.408;2023-05-03T08:54:15;95382.78;;;16.92;47.61
19761;BME280;10039;42.632;23.408;2023-05-03T08:56:46;95378.19;;;16.50;48.46
19761;BME280;10039;42.632;23.408;2023-05-03T08:59:12;95376.75;;;16.24;49.17
19761;BME280;10039;42.632;23.408;2023-05-03T09:01:39;95371.91;;;16.32;49.68
19761;BME280;10039;42.632;23.408;2023-05-03T09:04:06;95380.44;;;16.73;48.88
19761;BME280;10039;42.632;23.408;2023-05-03T09:06:33;95375.66;;;17.29;48.57
19761;BME280;10039;42.632;23.408;2023-05-03T09:09:00;95376.31;;;17.42;47.95
19761;BME280;10039;42.632;23.408;2023-05-03T09:11:28;95360.66;;;17.28;48.01
19761;BME280;10039;42.632;23.408;2023-05-03T09:14:07;95353.59;;;17.61;47.33
19761;BME280;10039;42.632;23.408;2023-05-03T09:16:33;95340.00;;;17.91;46.46
19761;BME280;10039;42.632;23.408;2023-05-03T09:19:00;95354.47;;;18.24;46.76
19761;BME280;10039;42.632;23.408;2023-05-03T09:21:26;95327.13;;;18.04;46.34
19761;BME280;10039;42.632;23.408;2023-05-03T09:23:52;95350.88;;;18.36;45.64
19761;BME280;10039;42.632;23.408;2023-05-03T09:26:31;95350.28;;;18.32;46.24
19761;BME280;10039;42.632;23.408;2023-05-03T09:28:58;95331.06;;;18.48;45.40
19761;BME280;10039;42.632;23.408;2023-05-03T09:31:23;95344.19;;;18.91;45.05
19761;BME280;10039;42.632;23.408;2023-05-03T09:33:49;95345.13;;;19.29;44.32
19761;BME280;10039;42.632;23.408;2023-05-03T09:36:15;95323.22;;;19.27;44.49
19761;BME280;10039;42.632;23.408;2023-05-03T09:38:41;95302.22;;;19.13;45.02
19761;BME280;10039;42.632;23.408;2023-05-03T09:41:07;95312.88;;;19.49;44.99
19761;BME280;10039;42.632;23.408;2023-05-03T09:43:33;95309.25;;;19.52;44.87
19761;BME280;10039;42.632;23.408;2023-05-03T09:46:07;95314.81;;;19.07;44.24
19761;BME280;10039;42.632;23.408;2023-05-03T09:48:34;95315.19;;;18.91;44.29
19761;BME280;10039;42.632;23.408;2023-05-03T09:51:02;95300.78;;;18.85;45.19
19761;BME280;10039;42.632;23.408;2023-05-03T09:53:28;95301.78;;;18.97;45.61
19761;BME280;10039;42.632;23.408;2023-05-03T09:55:55;95304.91;;;19.04;45.01
19761;BME280;10039;42.632;23.408;2023-05-03T09:58:21;95300.28;;;19.37;45.41
19761;BME280;10039;42.632;23.408;2023-05-03T10:00:48;95284.88;;;19.52;44.31
19761;BME280;10039;42.632;23.408;2023-05-03T10:03:21;95278.94;;;19.62;44.72
19761;BME280;10039;42.632;23.408;2023-05-03T10:05:49;95293.97;;;19.40;44.81
19761;BME280;10039;42.632;23.408;2023-05-03T10:08:27;95307.59;;;19.22;44.80
19761;BME280;10039;42.632;23.408;2023-05-03T10:10:57;95267.69;;;19.31;45.12
19761;BME280;10039;42.632;23.408;2023-05-03T10:13:23;95292.94;;;19.61;44.60
19761;BME280;10039;42.632;23.408;2023-05-03T10:15:55;95280.09;;;19.47;44.34
19761;BME280;10039;42.632;23.408;2023-05-03T10:18:25;95289.59;;;19.42;44.20
19761;BME280;10039;42.632;23.408;2023-05-03T10:20:59;95268.69;;;19.43;44.62
19761;BME280;10039;42.632;23.408;2023-05-03T10:23:26;95267.84;;;19.28;44.41
19761;BME280;10039;42.632;23.408;2023-05-03T10:28:37;95261.00;;;19.09;45.77
19761;BME280;10039;42.632;23.408;2023-05-03T10:31:03;95258.25;;;19.27;46.08
19761;BME280;10039;42.632;23.408;2023-05-03T10:33:32;95258.72;;;19.49;45.53
19761;BME280;10039;42.632;23.408;2023-05-03T10:36:06;95259.28;;;19.29;45.27
19761;BME280;10039;42.632;23.408;2023-05-03T10:38:31;95259.28;;;18.88;45.16
19761;BME280;10039;42.632;23.408;2023-05-03T10:40:58;95246.69;;;18.85;45.72
19761;BME280;10039;42.632;23.408;2023-05-03T10:45:57;95251.59;;;19.28;45.19
19761;BME280;10039;42.632;23.408;2023-05-03T10:48:23;95261.75;;;19.42;45.08
19761;BME280;10039;42.632;23.408;2023-05-03T10:50:49;95262.31;;;19.55;45.00
19761;BME280;10039;42.632;23.408;2023-05-03T10:53:38;95265.56;;;19.82;45.98
19761;BME280;10039;42.632;23.408;2023-05-03T10:56:10;95250.22;;;19.79;44.11
19761;BME280;10039;42.632;23.408;2023-05-03T10:58:37;95258.44;;;20.08;44.24
19761;BME280;10039;42.632;23.408;2023-05-03T11:01:06;95259.81;;;20.27;43.59
19761;BME280;10039;42.632;23.408;2023-05-03T11:03:42;95257.75;;;20.36;43.25
19761;BME280;10039;42.632;23.408;2023-05-03T11:06:09;95257.19;;;20.33;43.41
19761;BME280;10039;42.632;23.408;2023-05-03T11:08:34;95245.88;;;20.20;43.39
19761;BME280;10039;42.632;23.408;2023-05-03T11:11:03;95235.13;;;20.39;43.86
19761;BME280;10039;42.632;23.408;2023-05-03T11:13:36;95245.34;;;20.59;44.11
19761;BME280;10039;42.632;23.408;2023-05-03T11:16:04;95248.78;;;20.45;43.12
19761;BME280;10039;42.632;23.408;2023-05-03T11:18:30;95248.78;;;20.59;43.76
19761;BME280;10039;42.632;23.408;2023-05-03T11:20:56;95238.41;;;20.43;44.01
19761;BME280;10039;42.632;23.408;2023-05-03T11:23:28;95227.00;;;20.39;44.13
19761;BME280;10039;42.632;23.408;2023-05-03T11:25:54;95240.56;;;20.54;43.44
19761;BME280;10039;42.632;23.408;2023-05-03T11:28:22;95197.16;;;20.25;43.97
19761;BME280;10039;42.632;23.408;2023-05-03T11:30:48;95238.69;;;20.60;44.37
19761;BME280;10039;42.632;23.408;2023-05-03T11:33:15;95232.78;;;20.61;44.49
19761;BME280;10039;42.632;23.408;2023-05-03T11:35:40;95239.91;;;20.73;44.23
19761;BME280;10039;42.632;23.408;2023-05-03T11:38:07;95224.34;;;20.74;44.48
19761;BME280;10039;42.632;23.408;2023-05-03T11:40:33;95231.84;;;20.50;44.63
19761;BME280;10039;42.632;23.408;2023-05-03T11:43:01;95235.22;;;20.31;45.76
19761;BME280;10039;42.632;23.408;2023-05-03T11:45:43;95229.13;;;20.07;45.07
19761;BME280;10039;42.632;23.408;2023-05-03T11:48:11;95208.94;;;19.84;45.63
19761;BME280;10039;42.632;23.408;2023-05-03T11:50:48;95223.25;;;19.85;45.83
19761;BME280;10039;42.632;23.408;2023-05-03T11:53:16;95222.00;;;19.71;46.47
19761;BME280;10039;42.632;23.408;2023-05-03T11:55:47;95217.63;;;19.74;47.40
19761;BME280;10039;42.632;23.408;2023-05-03T12:00:46;95208.00;;;20.11;45.77
19761;BME280;10039;42.632;23.408;2023-05-03T12:05:47;95209.84;;;19.67;46.20
19761;BME280;10039;42.632;23.408;2023-05-03T12:08:13;95213.47;;;19.64;46.43
19761;BME280;10039;42.632;23.408;2023-05-03T12:10:43;95220.19;;;19.54;46.36
19761;BME280;10039;42.632;23.408;2023-05-03T12:13:09;95229.22;;;19.27;47.86
19761;BME280;10039;42.632;23.408;2023-05-03T12:15:36;95215.50;;;19.31;46.75
19761;BME280;10039;42.632;23.408;2023-05-03T12:18:10;95198.56;;;19.45;47.03
19761;BME280;10039;42.632;23.408;2023-05-03T12:20:37;95180.50;;;19.27;47.04
19761;BME280;10039;42.632;23.408;2023-05-03T12:23:05;95199.66;;;19.15;46.99
19761;BME280;10039;42.632;23.408;2023-05-03T12:25:32;95207.47;;;18.81;47.36
19761;BME280;10039;42.632;23.408;2023-05-03T12:28:00;95216.50;;;18.78;47.76
19761;BME280;10039;42.632;23.408;2023-05-03T12:30:27;95227.88;;;18.40;48.85
19761;BME280;10039;42.632;23.408;2023-05-03T12:32:53;95205.34;;;18.43;49.00
19761;BME280;10039;42.632;23.408;2023-05-03T12:35:19;95220.44;;;18.68;48.67
19761;BME280;10039;42.632;23.408;2023-05-03T12:37:45;95207.94;;;18.79;48.43
19761;BME280;10039;42.632;23.408;2023-05-03T12:40:11;95209.16;;;18.69;48.60
19761;BME280;10039;42.632;23.408;2023-05-03T12:42:38;95209.44;;;18.80;48.89
19761;BME280;10039;42.632;23.408;2023-05-03T12:45:04;95184.72;;;18.64;48.31
19761;BME280;10039;42.632;23.408;2023-05-03T12:47:30;95216.31;;;18.90;48.22
19761;BME280;10039;42.632;23.408;2023-05-03T12:49:55;95209.63;;;18.68;48.09
19761;BME280;10039;42.632;23.408;2023-05-03T12:52:21;95193.03;;;18.51;50.52
19761;BME280;10039;42.632;23.408;2023-05-03T12:54:47;95217.38;;;18.42;52.04
19761;BME280;10039;42.632;23.408;2023-05-03T12:57:13;95230.56;;;18.49;53.21
19761;BME280;10039;42.632;23.408;2023-05-03T12:59:39;95215.00;;;18.26;53.09
19761;BME280;10039;42.632;23.408;2023-05-03T13:02:09;95207.78;;;18.05;53.23
19761;BME280;10039;42.632;23.408;2023-05-03T13:04:56;95215.34;;;17.66;54.45
19761;BME280;10039;42.632;23.408;2023-05-03T13:07:24;95215.94;;;17.61;54.58